Hlavní strana
METAR-TAF:

METAR-TAF

Letiště :

Fairbanks, Aljaška, Spojené státy americké

zeměpisná šířka: 64-48-14N, zeměpisná délka: 147-52-34W, výška: 132 m

Aktuální stav počasí

Zpráva byla vytvořena před 1 hodinou a 3 minutami, v 21:53 UTC
Bezvětří
Teplota -14°C
Vlhkost vzduchu 85%
Tlak 1019 hPa
Viditelnost: 16.1 km
Polojasno ve výšce 10000 ft
Oblačno až skoro zataženo ve výšce 12000 ft
Zataženo ve výšce 18000 ft

METAR: PAFA 162153Z 00000KT 10SM SCT100 BKN120 OVC180 M14/M16 A3009 RMK AO2 SLP203 T11441156

Čas: 13:56 (22:56 UTC)

Předpověď počasí

Zpráva byla vytvořena před 5 hodinami a 16 minutami, v 17:40 UTC
Předpověď platná od 16 v 18 UTC do 17 v 24 UTC
Severní vítr kt
Viditelnost: 10 km
Skoro jasno ve výšce 10000 ft
Oblačno až skoro zataženo ve výšce 20000 ft
Od 17 v 2200 UTC
Severoseverovýchodní vítr 2 kt
Viditelnost: 10 km
Oblačno až skoro zataženo ve výšce 10000 ft
Oblačno až skoro zataženo ve výšce 20000 ft

TAF: PAFA 161740Z 1618/1724 00000KT P6SM FEW100 BKN200 FM172200 03002KT P6SM BKN100 BKN200

Stav a předpovědi počasí z více než 4 000 letišť (zprávy METAR a TAF).

Červené a žluté tečky na mapě představují dostupné meteorologické stanice.

Když kurzor umístíte na tečku, zobrazí se název stanice.

Pak kliknutím zobrazíte stav a předpověď počasí.

Chcete-li změnit mapu, kliknutím na zelené tlačítko se znaménkem +mapu přiblížíte, kliknutím na zelené tlačítko se znaménkem – mapu oddálíte a kliknutím na zelené šipky přejdete na sousední mapy.


METAR-TAF: